Time;durP1;ratioP1;P1;durP2;ratioP2;P2;SDS_P1;SDS_P2;PMS_P1;PMS_P2;Temp;Humidity;BMP_temperature;BMP_pressure;BME280_temperature;BME280_humidity;BME280_pressure;Samples;Min_cycle;Max_cycle;Signal;HPM_P1;HPM_P2
2022/10/15 00:01:28;;;;;;;;;;;;;;;;;;5035393;28;20503;-58
2022/10/15 00:03:54;;;;;;;;;;;;;;;;;;5034852;28;19935;-58
2022/10/15 00:06:19;;;;;;;;;;;;;;;;;;5032783;28;19932;-58
2022/10/15 00:08:45;;;;;;;;;;;;;;;;;;5032475;28;19932;-58
2022/10/15 00:11:11;;;;;;;;;;;;;;;;;;5039588;28;19932;-58
2022/10/15 00:13:37;;;;;;;;;;;;;;;;;;5036358;28;20541;-58
2022/10/15 00:16:03;;;;;;;;;;;;;;;;;;5038232;28;20613;-58
2022/10/15 00:18:29;;;;;;;;;;;;;;;;;;5033413;28;19925;-58
2022/10/15 00:20:55;;;;;;;;;;;;;;;;;;5036023;28;20277;-58
2022/10/15 00:23:21;;;;;;;;;;;;;;;;;;5038082;28;19953;-58
2022/10/15 00:25:47;;;;;;;;;;;;;;;;;;5040728;28;19970;-58
2022/10/15 00:28:13;;;;;;;;;;;;;;;;;;5038645;28;20007;-58
2022/10/15 00:30:38;;;;;;;;;;;;;;;;;;5036635;28;19928;-58
2022/10/15 00:33:04;;;;;;;;;;;;;;;;;;5039623;28;19947;-58
2022/10/15 00:35:30;;;;;;;;;;;;;;;;;;5032887;28;19929;-58
2022/10/15 00:37:56;;;;;;;;;;;;;;;;;;5034737;28;19925;-58
2022/10/15 00:40:22;;;;;;;;;;;;;;;;;;5034844;28;19931;-58
2022/10/15 00:42:48;;;;;;;;;;;;;;;;;;5040662;28;20409;-58
2022/10/15 00:45:14;;;;;;;;;;;;;;;;;;5035324;28;19947;-58
2022/10/15 00:47:40;;;;;;;;;;;;;;;;;;5037750;28;19929;-57
2022/10/15 00:50:06;;;;;;;;;;;;;;;;;;5036938;28;19929;-57
2022/10/15 00:52:32;;;;;;;;;;;;;;;;;;5040270;28;19929;-58
2022/10/15 00:54:58;;;;;;;;;;;;;;;;;;5038966;28;19929;-58
2022/10/15 00:57:24;;;;;;;;;;;;;;;;;;5035958;28;19935;-58
2022/10/15 00:59:50;;;;;;;;;;;;;;;;;;5040199;28;20530;-58
2022/10/15 01:02:15;;;;;;;;;;;;;;;;;;5036408;28;19925;-58
2022/10/15 01:04:41;;;;;;;;;;;;;;;;;;5037294;28;19971;-58
2022/10/15 01:07:07;;;;;;;;;;;;;;;;;;5031790;28;20407;-58
2022/10/15 01:09:33;;;;;;;;;;;;;;;;;;5039550;28;19932;-57
2022/10/15 01:11:59;;;;;;;;;;;;;;;;;;5040096;28;19979;-58
2022/10/15 01:14:25;;;;;;;;;;;;;;;;;;5040271;28;19925;-58
2022/10/15 01:16:51;;;;;;;;;;;;;;;;;;5033818;28;19929;-58
2022/10/15 01:19:17;;;;;;;;;;;;;;;;;;5034205;28;19921;-58
2022/10/15 01:21:43;;;;;;;;;;;;;;;;;;5037972;28;19928;-58
2022/10/15 01:24:09;;;;;;;;;;;;;;;;;;5039749;28;20012;-58
2022/10/15 01:26:34;;;;;;;;;;;;;;;;;;5033504;28;19940;-58
2022/10/15 01:29:00;;;;;;;;;;;;;;;;;;5042016;28;20395;-57
2022/10/15 01:31:26;;;;;;;;;;;;;;;;;;5032805;28;19925;-58
2022/10/15 01:33:52;;;;;;;;;;;;;;;;;;5034216;28;19927;-58
2022/10/15 01:36:18;;;;;;;;;;;;;;;;;;5036109;28;19925;-58
2022/10/15 01:38:44;;;;;;;;;;;;;;;;;;5035922;28;19921;-58
2022/10/15 01:41:10;;;;;;;;;;;;;;;;;;5037099;28;20385;-58
2022/10/15 01:43:36;;;;;;;;;;;;;;;;;;5032989;28;19956;-58
2022/10/15 01:46:02;;;;;;;;;;;;;;;;;;5036936;28;19921;-58
2022/10/15 01:48:28;;;;;;;;;;;;;;;;;;5033199;28;19975;-58
2022/10/15 01:50:53;;;;;;;;;;;;;;;;;;5038088;28;19986;-58
2022/10/15 01:53:25;;;;;;;;;;;;;;;;;;5034747;28;20168;-58
2022/10/15 01:55:51;;;;;;;;;;;;;;;;;;5035407;28;19924;-58
2022/10/15 01:58:17;;;;;;;;;;;;;;;;;;5034197;28;20402;-58
2022/10/15 02:00:43;;;;;;;;;;;;;;;;;;5038224;28;19964;-58
2022/10/15 02:03:09;;;;;;;;;;;;;;;;;;5034565;28;19927;-58
2022/10/15 02:05:35;;;;;;;;;;;;;;;;;;5033297;28;19921;-58
2022/10/15 02:08:00;;;;;;;;;;;;;;;;;;5039884;28;19927;-57
2022/10/15 02:10:26;;;;;;;;;;;;;;;;;;5041473;28;19925;-58
2022/10/15 02:12:52;;;;;;;;;;;;;;;;;;5042405;28;20414;-58
2022/10/15 02:15:18;;;;;;;;;;;;;;;;;;5035434;28;19936;-58
2022/10/15 02:17:44;;;;;;;;;;;;;;;;;;5040372;28;19924;-58
2022/10/15 02:20:10;;;;;;;;;;;;;;;;;;5037117;28;19925;-58
2022/10/15 02:22:36;;;;;;;;;;;;;;;;;;5038300;28;19925;-57
2022/10/15 02:25:02;;;;;;;;;;;;;;;;;;5040530;28;19974;-58
2022/10/15 02:27:28;;;;;;;;;;;;;;;;;;5040534;28;19925;-58
2022/10/15 02:29:54;;;;;;;;;;;;;;;;;;5036548;28;19921;-58
2022/10/15 02:32:20;;;;;;;;;;;;;;;;;;5040399;28;20323;-59
2022/10/15 02:34:46;;;;;;;;;;;;;;;;;;5040093;28;19928;-57
2022/10/15 02:37:12;;;;;;;;;;;;;;;;;;5038508;28;19920;-58
2022/10/15 02:39:38;;;;;;;;;;;;;;;;;;5036850;28;19921;-58
2022/10/15 02:42:04;;;;;;;;;;;;;;;;;;5039128;28;20308;-58
2022/10/15 02:44:29;;;;;;;;;;;;;;;;;;5039759;28;20089;-58
2022/10/15 02:46:57;;;;;;;10.80;9.68;;;;;;;;;;5036493;28;19925;-58
2022/10/15 02:49:23;;;;;;;13.10;11.43;;;;;;;;;;5033174;28;20045;-58
2022/10/15 02:51:49;;;;;;;;;;;;;;;;;;5038619;28;20044;-58
2022/10/15 02:54:15;;;;;;;;;;;;;;;;;;5038573;28;19935;-58
2022/10/15 02:56:41;;;;;;;;;;;;;;;;;;5036955;28;19928;-58
2022/10/15 02:59:06;;;;;;;;;;;;;;;;;;5040048;28;20518;-58
2022/10/15 03:01:33;;;;;;;;;;;;;;;;;;5038181;28;19975;-58
2022/10/15 03:03:59;;;;;;;;;;;;;;;;;;5040192;28;19929;-58
2022/10/15 03:06:24;;;;;;;;;;;;;;;;;;5033359;28;20301;-58
2022/10/15 03:08:50;;;;;;;;;;;;;;;;;;5036650;28;19937;-58
2022/10/15 03:11:16;;;;;;;;;;;;;;;;;;5039274;28;20017;-58
2022/10/15 03:13:42;;;;;;;;;;;;;;;;;;5039923;28;20387;-58
2022/10/15 03:16:08;;;;;;;12.73;10.25;;;;;;;;;;5036719;28;19999;-58
2022/10/15 03:18:34;;;;;;;;;;;;;;;;;;5036193;28;20652;-58
2022/10/15 03:21:00;;;;;;;;;;;;;;;;;;5036980;28;19925;-58
2022/10/15 03:23:26;;;;;;;;;;;;;;;;;;5037225;28;19928;-58
2022/10/15 03:25:53;;;;;;;;;;;;;;;;;;5038851;28;19983;-58
2022/10/15 03:28:19;;;;;;;;;;;;;;;;;;5040013;28;20318;-58
2022/10/15 03:30:44;;;;;;;;;;;;;;;;;;5038073;28;19921;-57
2022/10/15 03:33:10;;;;;;;;;;;;;;;;;;5030616;28;19978;-58
2022/10/15 03:35:36;;;;;;;;;;;;;;;;;;5034639;28;19944;-58
2022/10/15 03:38:02;;;;;;;;;;;;;;;;;;5038238;28;20356;-58
2022/10/15 03:40:28;;;;;;;;;;;;;;;;;;5039518;28;19931;-57
2022/10/15 03:42:55;;;;;;;;;;;;;;;;;;5032330;28;20015;-58
2022/10/15 03:45:21;;;;;;;;;;;;;;;;;;5037438;28;19929;-58
2022/10/15 03:47:47;;;;;;;;;;;;;;;;;;5030086;28;19931;-58
2022/10/15 03:50:13;;;;;;;;;;;;;;;;;;5035635;28;20656;-58
2022/10/15 03:52:38;;;;;;;;;;;;;;;;;;5038989;28;19975;-58
2022/10/15 03:55:04;;;;;;;;;;;;;;;;;;5039821;28;19920;-58
2022/10/15 03:57:30;;;;;;;;;;;;;;;;;;5033914;28;19929;-56
2022/10/15 03:59:56;;;;;;;;;;;;;;;;;;5040204;28;20275;-58
2022/10/15 04:02:22;;;;;;;;;;;;;;;;;;5033251;28;19921;-58
2022/10/15 04:04:48;;;;;;;;;;;;;;;;;;5036072;28;19951;-57
2022/10/15 04:07:14;;;;;;;;;;;;;;;;;;5035957;28;19928;-58
2022/10/15 04:09:40;;;;;;;;;;;;;;;;;;5039558;28;20275;-58
2022/10/15 04:12:06;;;;;;;;;;;;;;;;;;5039297;28;19920;-58
2022/10/15 04:14:32;;;;;;;;;;;;;;;;;;5038444;28;20344;-58
2022/10/15 04:16:57;;;;;;;;;;;;;;;;;;5037571;28;19956;-58
2022/10/15 04:19:23;;;;;;;;;;;;;;;;;;5032649;28;19959;-58
2022/10/15 04:21:49;;;;;;;;;;;;;;;;;;5040470;28;19928;-58
2022/10/15 04:24:15;;;;;;;;;;;;;;;;;;5041051;28;19921;-58
2022/10/15 04:26:41;;;;;;;12.57;11.15;;;;;;;;;;5039379;28;19920;-58
2022/10/15 04:29:07;;;;;;;10.15;9.15;;;;;;;;;;5040775;28;20087;-58
2022/10/15 04:31:33;;;;;;;15.63;12.18;;;;;;;;;;5031554;28;20098;-58
2022/10/15 04:33:59;;;;;;;11.18;10.05;;;;;;;;;;5037897;28;20102;-58
2022/10/15 04:36:25;;;;;;;13.45;11.73;;;;;;;;;;5038213;28;20591;-58
2022/10/15 04:38:51;;;;;;;;;;;;;;;;;;5040624;28;20116;-58
2022/10/15 04:41:17;;;;;;;;;;;;;;;;;;5035236;28;20504;-58
2022/10/15 04:43:43;;;;;;;;;;;;;;;;;;5036743;28;19928;-58
2022/10/15 04:46:09;;;;;;;;;;;;;;;;;;5036822;28;19927;-58
2022/10/15 04:48:35;;;;;;;;;;;;;;;;;;5033706;28;20272;-58
2022/10/15 04:51:01;;;;;;;;;;;;;;;;;;5030759;28;19967;-58
2022/10/15 04:53:27;;;;;;;;;;;;;;;;;;5034224;28;19921;-57
2022/10/15 04:55:53;;;;;;;;;;;;;;;;;;5035362;28;19933;-58
2022/10/15 04:58:18;;;;;;;;;;;;;;;;;;5036195;28;20307;-58
2022/10/15 05:00:44;;;;;;;;;;;;;;;;;;5036526;28;19925;-58
2022/10/15 05:03:10;;;;;;;;;;;;;;;;;;5038152;28;19943;-58
2022/10/15 05:05:36;;;;;;;;;;;;;;;;;;5038224;28;20568;-58
2022/10/15 05:08:02;;;;;;;;;;;;;;;;;;5037924;28;19924;-58
2022/10/15 05:10:28;;;;;;;;;;;;;;;;;;5036438;28;19963;-58
2022/10/15 05:12:54;;;;;;;;;;;;;;;;;;5040166;28;20385;-58
2022/10/15 05:15:20;;;;;;;;;;;;;;;;;;5038261;28;20023;-58
2022/10/15 05:17:46;;;;;;;;;;;;;;;;;;5035468;28;19920;-58
2022/10/15 05:20:11;;;;;;;;;;;;;;;;;;5037961;28;19926;-58
2022/10/15 05:22:37;;;;;;;;;;;;;;;;;;5042729;28;19931;-58
2022/10/15 05:25:03;;;;;;;;;;;;;;;;;;5036409;28;19920;-58
2022/10/15 05:27:29;;;;;;;;;;;;;;;;;;5034891;28;20311;-58
2022/10/15 05:29:55;;;;;;;;;;;;;;;;;;5041437;28;19947;-58
2022/10/15 05:32:21;;;;;;;;;;;;;;;;;;5036205;28;20003;-58
2022/10/15 05:34:47;;;;;;;;;;;;;;;;;;5040072;28;20389;-58
2022/10/15 05:37:13;;;;;;;;;;;;;;;;;;5038159;28;19921;-58
2022/10/15 05:39:38;;;;;;;;;;;;;;;;;;5038008;28;19921;-58
2022/10/15 05:42:04;;;;;;;;;;;;;;;;;;5036380;28;19921;-58
2022/10/15 05:44:30;;;;;;;;;;;;;;;;;;5038739;28;19924;-57
2022/10/15 05:46:56;;;;;;;;;;;;;;;;;;5042515;28;20043;-58
2022/10/15 05:49:22;;;;;;;;;;;;;;;;;;5044061;28;19925;-58
2022/10/15 05:51:48;;;;;;;;;;;;;;;;;;5040750;28;19965;-58
2022/10/15 05:54:14;;;;;;;;;;;;;;;;;;5040543;28;20000;-58
2022/10/15 05:56:40;;;;;;;;;;;;;;;;;;5041537;28;19932;-58
2022/10/15 05:59:06;;;;;;;;;;;;;;;;;;5036822;28;19925;-58
2022/10/15 06:01:32;;;;;;;;;;;;;;;;;;5038413;28;19924;-58
2022/10/15 06:03:58;;;;;;;;;;;;;;;;;;5041637;28;20003;-58
2022/10/15 06:06:25;;;;;;;;;;;;;;;;;;5035329;28;19921;-57
2022/10/15 06:08:50;;;;;;;;;;;;;;;;;;5038075;28;20352;-58
2022/10/15 06:11:16;;;;;;;;;;;;;;;;;;5039906;28;20874;-58
2022/10/15 06:13:42;;;;;;;;;;;;;;;;;;5041448;28;19967;-58
2022/10/15 06:16:08;;;;;;;;;;;;;;;;;;5042206;28;19921;-58
2022/10/15 06:18:34;;;;;;;;;;;;;;;;;;5040079;28;19929;-58
2022/10/15 06:21:00;;;;;;;;;;;;;;;;;;5043194;28;20012;-58
2022/10/15 06:23:26;;;;;;;;;;;;;;;;;;5044167;28;19931;-58
2022/10/15 06:25:52;;;;;;;;;;;;;;;;;;5044018;28;19921;-58
2022/10/15 06:28:18;;;;;;;;;;;;;;;;;;5037759;28;19920;-58
2022/10/15 06:30:44;;;;;;;;;;;;;;;;;;5039916;28;19960;-58
2022/10/15 06:33:10;;;;;;;;;;;;;;;;;;5037172;28;19936;-58
2022/10/15 06:35:36;;;;;;;;;;;;;;;;;;5036591;28;19942;-58
2022/10/15 06:38:01;;;;;;;;;;;;;;;;;;5041639;28;20426;-58
2022/10/15 06:40:27;;;;;;;;;;;;;;;;;;5036546;28;19921;-58
2022/10/15 06:42:53;;;;;;;;;;;;;;;;;;5038296;28;19920;-58
2022/10/15 06:45:19;;;;;;;;;;;;;;;;;;5034939;28;19964;-58
2022/10/15 06:47:45;;;;;;;;;;;;;;;;;;5040674;28;19925;-58
2022/10/15 06:50:11;;;;;;;;;;;;;;;;;;5038836;28;20386;-58
2022/10/15 06:52:37;;;;;;;;;;;;;;;;;;5035942;28;20020;-58
2022/10/15 06:55:03;;;;;;;;;;;;;;;;;;5039531;28;19928;-58
2022/10/15 06:57:29;;;;;;;;;;;;;;;;;;5038309;28;19928;-58
2022/10/15 06:59:55;;;;;;;;;;;;;;;;;;5043822;28;19921;-58
2022/10/15 07:02:20;;;;;;;;;;;;;;;;;;5044535;28;20275;-58
2022/10/15 07:04:46;;;;;;;;;;;;;;;;;;5039493;28;19936;-58
2022/10/15 07:07:12;;;;;;;;;;;;;;;;;;5037851;28;20403;-58
2022/10/15 07:09:38;;;;;;;;;;;;;;;;;;5041470;28;19920;-58
2022/10/15 07:12:04;;;;;;;;;;;;;;;;;;5037054;28;19921;-58
2022/10/15 07:14:30;;;;;;;;;;;;;;;;;;5043635;28;19987;-57
2022/10/15 07:16:56;;;;;;;;;;;;;;;;;;5043165;28;20308;-57
2022/10/15 07:19:22;;;;;;;;;;;;;;;;;;5037388;28;19994;-58
2022/10/15 07:21:48;;;;;;;;;;;;;;;;;;5034096;28;19968;-58
2022/10/15 07:24:14;;;;;;;;;;;;;;;;;;5036520;28;19921;-58
2022/10/15 07:26:40;;;;;;;;;;;;;;;;;;5042732;28;20329;-58
2022/10/15 07:29:06;;;;;;;;;;;;;;;;;;5038786;28;19921;-58
2022/10/15 07:31:31;;;;;;;;;;;;;;;;;;5038410;28;19927;-57
2022/10/15 07:33:57;;;;;;;;;;;;;;;;;;5037656;28;19928;-58
2022/10/15 07:36:23;;;;;;;;;;;;;;;;;;5038509;28;20465;-58
2022/10/15 07:38:49;;;;;;;;;;;;;;;;;;5037220;28;19920;-58
2022/10/15 07:41:15;;;;;;;;;;;;;;;;;;5038902;28;19978;-58
2022/10/15 07:43:41;;;;;;;;;;;;;;;;;;5036478;28;19921;-58
2022/10/15 07:46:07;;;;;;;;;;;;;;;;;;5037073;28;19975;-58
2022/10/15 07:48:33;;;;;;;;;;;;;;;;;;5036705;28;19929;-58
2022/10/15 07:50:59;;;;;;;;;;;;;;;;;;5040275;28;19921;-58
2022/10/15 07:53:25;;;;;;;;;;;;;;;;;;5036183;28;19999;-59
2022/10/15 07:55:50;;;;;;;;;;;;;;;;;;5033191;28;19925;-58
2022/10/15 07:58:16;;;;;;;;;;;;;;;;;;5039707;28;19925;-58
2022/10/15 08:00:42;;;;;;;;;;;;;;;;;;5036109;28;19928;-58
2022/10/15 08:03:08;;;;;;;;;;;;;;;;;;5035663;28;20299;-58
2022/10/15 08:05:34;;;;;;;;;;;;;;;;;;5038248;28;19924;-58
2022/10/15 08:08:00;;;;;;;;;;;;;;;;;;5038734;28;19964;-58
2022/10/15 08:10:26;;;;;;;;;;;;;;;;;;5039715;28;19928;-58
2022/10/15 08:12:52;;;;;;;;;;;;;;;;;;5036070;28;19924;-53
2022/10/15 08:15:18;;;;;;;;;;;;;;;;;;5035146;28;19921;-52
2022/10/15 08:17:44;;;;;;;;;;;;;;;;;;5045374;28;19974;-54
2022/10/15 08:20:10;;;;;;;;;;;;;;;;;;5034972;28;20457;-54
2022/10/15 08:22:36;;;;;;;;;;;;;;;;;;5043083;28;19927;-55
2022/10/15 08:25:02;;;;;;;;;;;;;;;;;;5047858;28;20015;-55
2022/10/15 08:27:28;;;;;;;;;;;;;;;;;;5045761;28;19920;-55
2022/10/15 08:29:54;;;;;;;;;;;;;;;;;;5041764;28;19927;-55
2022/10/15 08:32:20;;;;;;;;;;;;;;;;;;5038310;28;19921;-55
2022/10/15 08:34:45;;;;;;;;;;;;;;;;;;5036442;28;19921;-55
2022/10/15 08:37:11;;;;;;;;;;;;;;;;;;5040296;28;19943;-55
2022/10/15 08:39:37;;;;;;;;;;;;;;;;;;5043731;28;20386;-55
2022/10/15 08:42:03;;;;;;;;;;;;;;;;;;5038633;28;19920;-55
2022/10/15 08:44:29;;;;;;;;;;;;;;;;;;5043456;28;20004;-55
2022/10/15 08:46:55;;;;;;;;;;;;;;;;;;5042181;28;19959;-56
2022/10/15 08:49:21;;;;;;;;;;;;;;;;;;5045744;28;19929;-55
2022/10/15 08:51:47;;;;;;;;;;;;;;;;;;5039862;28;19925;-56
2022/10/15 08:54:13;;;;;;;;;;;;;;;;;;5038128;28;19928;-55
2022/10/15 08:56:39;;;;;;;;;;;;;;;;;;5044743;28;20011;-55
2022/10/15 08:59:05;;;;;;;;;;;;;;;;;;5038868;28;20428;-55
2022/10/15 09:01:30;;;;;;;;;;;;;;;;;;5045582;28;19951;-55
2022/10/15 09:03:56;;;;;;;;;;;;;;;;;;5046010;28;19929;-55
2022/10/15 09:06:22;;;;;;;;;;;;;;;;;;5041196;28;19927;-55
2022/10/15 09:08:48;;;;;;;;;;;;;;;;;;5038647;28;19968;-56
2022/10/15 09:11:14;;;;;;;;;;;;;;;;;;5043844;28;20447;-55
2022/10/15 09:13:40;;;;;;;;;;;;;;;;;;5037490;28;19978;-55
2022/10/15 09:16:06;;;;;;;;;;;;;;;;;;5042211;28;19921;-55
2022/10/15 09:18:32;;;;;;;;;;;;;;;;;;5043784;28;20379;-55
2022/10/15 09:20:58;;;;;;;;;;;;;;;;;;5041317;28;20384;-56
2022/10/15 09:23:24;;;;;;;;;;;;;;;;;;5038187;28;19927;-55
2022/10/15 09:25:50;;;;;;;;;;;;;;;;;;5038656;28;20011;-55
2022/10/15 09:28:15;;;;;;;;;;;;;;;;;;5032569;28;20388;-55
2022/10/15 09:30:42;;;;;;;;;;;;;;;;;;5030674;28;19932;-55
2022/10/15 09:33:08;;;;;;;;;;;;;;;;;;5031577;28;19920;-55
2022/10/15 09:35:34;;;;;;;;;;;;;;;;;;5041847;28;19944;-56
2022/10/15 09:38:00;;;;;;;;;;;;;;;;;;5042332;28;20013;-55
2022/10/15 09:40:27;;;;;;;;;;;;;;;;;;5028830;28;19921;-55
2022/10/15 09:42:53;;;;;;;;;;;;;;;;;;5039114;28;19929;-55
2022/10/15 09:45:19;;;;;;;;;;;;;;;;;;5041005;28;19975;-55
2022/10/15 09:47:45;;;;;;;;;;;;;;;;;;5039394;28;19928;-55
2022/10/15 09:50:11;;;;;;;;;;;;;;;;;;5040846;28;19921;-55
2022/10/15 09:52:37;;;;;;;;;;;;;;;;;;5045034;28;20047;-55
2022/10/15 09:55:03;;;;;;;;;;;;;;;;;;5040855;28;19967;-55
2022/10/15 09:57:29;;;;;;;;;;;;;;;;;;5043573;28;19929;-55
2022/10/15 09:59:55;;;;;;;;;;;;;;;;;;5041729;28;20040;-55
2022/10/15 10:02:21;;;;;;;;;;;;;;;;;;5039254;28;20298;-55
2022/10/15 10:04:47;;;;;;;;;;;;;;;;;;5041849;28;20011;-55
2022/10/15 10:07:12;;;;;;;;;;;;;;;;;;5037536;28;20404;-55
2022/10/15 10:09:38;;;;;;;;;;;;;;;;;;5035370;28;20398;-55
2022/10/15 10:12:04;;;;;;;;;;;;;;;;;;5045812;28;19928;-55
2022/10/15 10:14:30;;;;;;;;;;;;;;;;;;5038799;28;19925;-55
2022/10/15 10:16:56;;;;;;;;;;;;;;;;;;5042065;28;20002;-55
2022/10/15 10:19:22;;;;;;;;;;;;;;;;;;5038905;28;20026;-55
2022/10/15 10:21:48;;;;;;;;;;;;;;;;;;5035836;28;20091;-55
2022/10/15 10:24:14;;;;;;;;;;;;;;;;;;5038510;28;19917;-55
2022/10/15 10:26:40;;;;;;;;;;;;;;;;;;5035781;28;19928;-55
2022/10/15 10:29:06;;;;;;;;;;;;;;;;;;5044028;28;19921;-55
2022/10/15 10:31:32;;;;;;;;;;;;;;;;;;5041844;28;19932;-55
2022/10/15 10:33:57;;;;;;;;;;;;;;;;;;5045370;28;20008;-55
2022/10/15 10:36:23;;;;;;;;;;;;;;;;;;5042393;28;20334;-55
2022/10/15 10:38:49;;;;;;;;;;;;;;;;;;5043361;28;19935;-55
2022/10/15 10:41:15;;;;;;;;;;;;;;;;;;5042535;28;19921;-55
2022/10/15 10:43:41;;;;;;;;;;;;;;;;;;5042506;28;20394;-55
2022/10/15 10:46:11;;;;;;;;;;;;;;;;;;5046159;28;19932;-55
2022/10/15 10:48:37;;;;;;;;;;;;;;;;;;5040300;28;19987;-55
2022/10/15 10:51:03;;;;;;;;;;;;;;;;;;5048352;28;20381;-54
2022/10/15 10:53:29;;;;;;;;;;;;;;;;;;5048299;28;19948;-55
2022/10/15 10:55:55;;;;;;;;;;;;;;;;;;5039851;28;20279;-56
2022/10/15 10:58:22;;;;;;;25.63;17.92;;;;;;;;;;5041391;28;19929;-55
2022/10/15 11:00:51;;;;;;;21.25;17.50;;;;;;;;;;5047116;28;20036;-55
2022/10/15 11:03:34;;;;;;;24.30;19.05;;;;;;;;;;5039720;28;20065;-55
2022/10/15 11:06:18;;;;;;;18.98;16.23;;;;;;;;;;5040785;28;20436;-55
2022/10/15 11:08:47;;;;;;;23.67;18.95;;;;;;;;;;5040028;28;20037;-56
2022/10/15 11:11:25;;;;;;;19.85;15.43;;;;;;;;;;5044168;28;20033;-55
2022/10/15 11:13:54;;;;;;;17.52;14.50;;;;;;;;;;5041772;28;20423;-56
2022/10/15 11:16:37;;;;;;;18.45;14.55;;;;;;;;;;5039404;28;20076;-56
2022/10/15 11:19:03;;;;;;;15.90;13.80;;;;;;;;;;5043825;28;20045;-56
2022/10/15 11:21:48;;;;;;;18.35;15.30;;;;;;;;;;5047023;28;20124;-55
2022/10/15 11:24:14;;;;;;;15.77;12.95;;;;;;;;;;5046080;28;20044;-56
2022/10/15 11:26:47;;;;;;;16.60;13.77;;;;;;;;;;5042653;28;20044;-57
2022/10/15 11:29:17;;;;;;;11.93;10.73;;;;;;;;;;5041035;28;20087;-56
2022/10/15 11:32:04;;;;;;;12.45;10.52;;;;;;;;;;5041285;28;20717;-56
2022/10/15 11:34:33;;;;;;;15.80;12.27;;;;;;;;;;5038169;28;20056;-57
2022/10/15 11:36:59;;;;;;;12.88;11.48;;;;;;;;;;5037518;28;20141;-56
2022/10/15 11:39:25;;;;;;;12.25;10.63;;;;;;;;;;5033482;28;20045;-56
2022/10/15 11:42:09;;;;;;;13.63;12.23;;;;;;;;;;5042789;28;20523;-56
2022/10/15 11:44:58;;;;;;;12.52;10.32;;;;;;;;;;5039941;28;20099;-57
2022/10/15 11:47:30;;;;;;;13.35;11.65;;;;;;;;;;5030356;28;20053;-56
2022/10/15 11:50:02;;;;;;;12.57;10.93;;;;;;;;;;5040716;28;20056;-56
2022/10/15 11:52:47;;;;;;;13.05;10.82;;;;;;;;;;5040523;28;20069;-56
2022/10/15 11:55:17;;;;;;;11.00;9.90;;;;;;;;;;5037615;28;20041;-55
2022/10/15 11:57:44;;;;;;;12.00;10.70;;;;;;;;;;5043845;28;20519;-56
2022/10/15 12:00:29;;;;;;;13.50;12.10;;;;;;;;;;5041542;28;20067;-57
2022/10/15 12:02:56;;;;;;;11.50;9.73;;;;;;;;;;5043297;28;20057;-56
2022/10/15 12:05:33;;;;;;;11.98;10.70;;;;;;;;;;5029328;28;20049;-57
2022/10/15 12:07:59;;;;;;;11.45;10.32;;;;;;;;;;5040328;28;20045;-57
2022/10/15 12:10:44;;;;;;;11.82;9.98;;;;;;;;;;5045443;28;20045;-56
2022/10/15 12:13:15;;;;;;;11.93;10.73;;;;;;;;;;5041938;28;20041;-55
2022/10/15 12:15:49;;;;;;;12.63;11.00;;;;;;;;;;5045541;28;20103;-56
2022/10/15 12:18:51;;;;;;;12.68;11.38;;;;;;;;;;5041620;28;20053;-56
2022/10/15 12:21:35;;;;;;;11.50;10.20;;;;;;;;;;5021935;28;20045;-57
2022/10/15 12:24:02;;;;;;;9.85;8.68;;;;;;;;;;5036353;28;20103;-56
2022/10/15 12:26:33;;;;;;;9.75;8.85;;;;;;;;;;5037185;28;20704;-57
2022/10/15 12:29:01;;;;;;;9.82;8.85;;;;;;;;;;5040455;28;20046;-56
2022/10/15 12:31:42;;;;;;;11.07;10.00;;;;;;;;;;5029781;28;20052;-57
2022/10/15 12:34:23;;;;;;;10.07;8.95;;;;;;;;;;5040976;28;20041;-56
2022/10/15 12:36:58;;;;;;;13.80;12.25;;;;;;;;;;5040099;28;20514;-56
2022/10/15 12:39:24;;;;;;;12.32;11.02;;;;;;;;;;5028725;28;20052;-56
2022/10/15 12:41:50;;;;;;;11.07;9.98;;;;;;;;;;5032632;28;20091;-56
2022/10/15 12:44:22;;;;;;;10.32;9.30;;;;;;;;;;5037449;28;20079;-56
2022/10/15 12:46:49;;;;;;;8.75;7.85;;;;;;;;;;5036796;28;20080;-56
2022/10/15 12:49:30;;;;;;;10.65;9.55;;;;;;;;;;5037034;28;20522;-56
2022/10/15 12:52:00;;;;;;;10.20;9.15;;;;;;;;;;5028737;28;20053;-56
2022/10/15 12:54:34;;;;;;;9.13;8.23;;;;;;;;;;5038403;28;20049;-56
2022/10/15 12:57:00;;;;;;;10.55;9.45;;;;;;;;;;5041292;28;20425;-56
2022/10/15 12:59:31;;;;;;;10.63;9.57;;;;;;;;;;5035386;28;20080;-55
2022/10/15 13:01:57;;;;;;;9.02;8.13;;;;;;;;;;5041616;28;20148;-56
2022/10/15 13:04:23;;;;;;;11.98;10.75;;;;;;;;;;5036335;28;20450;-56
2022/10/15 13:06:49;;;;;;;9.80;8.80;;;;;;;;;;5039888;28;20044;-56
2022/10/15 13:09:23;;;;;;;10.30;9.30;;;;;;;;;;5036574;28;20052;-56
2022/10/15 13:11:50;;;;;;;11.55;10.35;;;;;;;;;;5037035;28;20403;-56
2022/10/15 13:14:27;;;;;;;9.80;8.85;;;;;;;;;;5042342;28;20041;-56
2022/10/15 13:16:53;;;;;;;10.15;9.20;;;;;;;;;;5042167;28;20045;-56
2022/10/15 13:19:21;;;;;;;11.23;9.25;;;;;;;;;;5035971;28;20041;-56
2022/10/15 13:21:55;;;;;;;9.13;7.90;;;;;;;;;;5041019;28;20048;-56
2022/10/15 13:24:23;;;;;;;9.65;8.75;;;;;;;;;;5038607;28;20068;-56
2022/10/15 13:26:49;;;;;;;9.63;8.73;;;;;;;;;;5038511;28;20082;-56
2022/10/15 13:29:20;;;;;;;7.28;6.60;;;;;;;;;;5034887;28;20127;-56
2022/10/15 13:31:47;;;;;;;7.72;7.03;;;;;;;;;;5039426;28;20049;-57
2022/10/15 13:34:21;;;;;;;7.25;6.40;;;;;;;;;;5035327;28;20053;-56
2022/10/15 13:36:47;;;;;;;7.53;6.82;;;;;;;;;;5031401;28;20097;-56
2022/10/15 13:39:24;;;;;;;8.15;7.38;;;;;;;;;;5039149;28;20085;-56
2022/10/15 13:41:50;;;;;;;7.90;7.20;;;;;;;;;;5037648;28;20040;-56
2022/10/15 13:44:23;;;;;;;9.00;8.15;;;;;;;;;;5039168;28;20049;-56
2022/10/15 13:46:50;;;;;;;8.18;7.38;;;;;;;;;;5039925;28;20033;-56
2022/10/15 13:49:17;;;;;;;9.40;8.50;;;;;;;;;;5040304;28;20041;-57
2022/10/15 13:51:44;;;;;;;7.53;6.82;;;;;;;;;;5040389;28;20037;-56
2022/10/15 13:54:11;;;;;;;8.20;7.40;;;;;;;;;;5033032;28;20378;-56
2022/10/15 13:56:41;;;;;;;6.25;5.75;;;;;;;;;;5035845;28;20386;-56
2022/10/15 13:59:14;;;;;;;6.35;5.75;;;;;;;;;;5030949;28;20052;-56
2022/10/15 14:01:45;;;;;;;7.70;7.00;;;;;;;;;;5037815;28;20557;-56
2022/10/15 14:04:18;;;;;;;6.63;6.03;;;;;;;;;;5041960;28;20056;-56
2022/10/15 14:06:55;;;;;;;7.85;6.68;;;;;;;;;;5036250;28;20041;-56
2022/10/15 14:09:41;;;;;;;6.60;5.13;;;;;;;;;;5045032;28;20084;-56
2022/10/15 14:12:08;;;;;;;6.05;5.55;;;;;;;;;;5046247;28;20129;-56
2022/10/15 14:14:40;;;;;;;7.63;6.93;;;;;;;;;;5044296;28;20114;-56
2022/10/15 14:17:16;;;;;;;6.25;5.63;;;;;;;;;;5038879;28;20052;-56
2022/10/15 14:19:46;;;;;;;5.07;4.68;;;;;;;;;;5042260;28;20053;-56
2022/10/15 14:22:17;;;;;;;4.53;4.18;;;;;;;;;;5047082;28;20044;-56
2022/10/15 14:24:43;;;;;;;5.10;4.60;;;;;;;;;;5041821;28;20121;-56
2022/10/15 14:27:12;;;;;;;5.03;4.63;;;;;;;;;;5040300;28;20495;-56
2022/10/15 14:29:41;;;;;;;5.13;4.72;;;;;;;;;;5046835;28;20036;-56
2022/10/15 14:32:30;;;;;;;5.30;4.80;;;;;;;;;;5043091;28;20538;-56
2022/10/15 14:34:59;;;;;;;6.30;5.70;;;;;;;;;;5035201;28;20053;-57
2022/10/15 14:37:31;;;;;;;4.50;4.10;;;;;;;;;;5039474;28;20048;-56
2022/10/15 14:40:03;;;;;;;4.70;4.20;;;;;;;;;;5043335;28;20044;-56
2022/10/15 14:42:31;;;;;;;4.93;4.53;;;;;;;;;;5038250;28;20053;-56
2022/10/15 14:45:09;;;;;;;5.47;5.00;;;;;;;;;;5035051;28;20087;-56
2022/10/15 14:47:36;;;;;;;5.32;4.82;;;;;;;;;;5037619;28;20208;-56
2022/10/15 14:50:03;;;;;;;4.93;4.43;;;;;;;;;;5038964;28;20060;-56
2022/10/15 14:52:30;;;;;;;5.15;4.10;;;;;;;;;;5034224;28;20499;-56
2022/10/15 14:55:08;;;;;;;3.30;3.00;;;;;;;;;;5048325;28;20067;-56
2022/10/15 14:57:38;;;;;;;3.40;3.17;;;;;;;;;;5040972;28;20124;-56
2022/10/15 15:00:05;;;;;;;2.78;2.58;;;;;;;;;;5045111;28;20126;-57
2022/10/15 15:02:31;;;;;;;3.70;3.40;;;;;;;;;;5041417;28;20602;-56
2022/10/15 15:05:13;;;;;;;4.85;4.45;;;;;;;;;;5059122;28;20143;-56
2022/10/15 15:07:39;;;;;;;4.35;3.95;;;;;;;;;;5039877;28;20041;-56
2022/10/15 15:10:07;;;;;;;3.28;2.97;;;;;;;;;;5045119;28;20115;-56
2022/10/15 15:12:33;;;;;;;3.08;2.78;;;;;;;;;;5042478;28;20091;-55
2022/10/15 15:14:59;;;;;;;2.90;2.70;;;;;;;;;;5045856;28;20458;-56
2022/10/15 15:17:26;;;;;;;2.95;2.65;;;;;;;;;;5039456;28;20042;-56
2022/10/15 15:19:54;;;;;;;2.80;2.60;;;;;;;;;;5037947;28;20397;-56
2022/10/15 15:22:38;;;;;;;2.25;2.15;;;;;;;;;;5045066;28;20053;-56
2022/10/15 15:25:15;;;;;;;3.13;2.83;;;;;;;;;;5046211;28;20041;-56
2022/10/15 15:27:41;;;;;;;3.67;3.35;;;;;;;;;;5045299;28;20087;-55
2022/10/15 15:30:12;;;;;;;4.07;3.70;;;;;;;;;;5042657;28;20033;-57
2022/10/15 15:32:38;;;;;;;3.83;3.53;;;;;;;;;;5034665;28;20049;-55
2022/10/15 15:35:22;;;;;;;4.43;4.03;;;;;;;;;;5040754;28;20072;-55
2022/10/15 15:37:48;;;;;;;4.50;4.10;;;;;;;;;;5037754;28;20557;-56
2022/10/15 15:40:14;;;;;;;4.55;4.15;;;;;;;;;;5036075;28;20045;-55
2022/10/15 15:42:40;;;;;;;3.75;3.45;;;;;;;;;;5043753;28;20563;-56
2022/10/15 15:45:11;;;;;;;4.10;3.80;;;;;;;;;;5044044;28;20081;-56
2022/10/15 15:47:37;;;;;;;3.67;3.33;;;;;;;;;;5044313;28;20102;-56
2022/10/15 15:50:03;;;;;;;3.13;2.90;;;;;;;;;;5037274;28;20053;-56
2022/10/15 15:52:29;;;;;;;3.55;3.25;;;;;;;;;;5040166;28;20045;-56
2022/10/15 15:54:55;;;;;;;3.17;2.97;;;;;;;;;;5038579;28;20091;-55
2022/10/15 15:57:21;;;;;;;3.28;2.97;;;;;;;;;;5034436;28;20052;-55
2022/10/15 15:59:47;;;;;;;2.60;2.40;;;;;;;;;;5031630;28;20407;-55